Vijfhuizen, Netherlands

8:27 AM CEST on March 29, 2015 (GMT +0200)
Haarlem | | Change Station
CLOSE
Current Station
Personal Weather Station
Location: HAARLEM, NOORD-HOLLAND
Elevation: 3 ft
Nearby Weather Stations
Active Advisory: Wind nederlands:

Elev 3 ft 52.36 °N, 4.67 °E | Updated 39 seconds ago

Rain
Rain
47.8 °F
Feels Like 46 °F
N
5.0
Wind Variable Wind from North
Gusts 10.0 mph

Today
High -- | Low -- °F
--% Chance of Precip.
Yesterday
High -- | Low -- °F
Precip. -- in
7:23 AM 8:09 PM
Waxing Gibbous, 69% visible
Pressure 29.56 in
Visibility 6.2 miles
Clouds Few 1000 ft
Scattered Clouds 1900 ft
Windchill 46 °F
Dew Point 48 °F
Humidity 99%
Rainfall 0.09 in
Snow Depth Not available.
UV 0 out of 12
Pollen Not available.
Air Quality Not available.
Flu Activity Not available.
METAR EHAM 290625Z 24024KT 210V270 9999 FEW010 SCT019 09/07 Q1001 NOSIG

More Conditions Fewer Conditions

Pressure 29.56 in
Visibility 6.2 miles
Clouds Few 1000 ft
Scattered Clouds 1900 ft
Windchill 46 °F
Dew Point 48 °F
Humidity 99%
Rainfall 0.09 in
Snow Depth Not available.
UV 0 out of 12
Pollen Not available.
Air Quality Not available.
Flu Activity Not available.
METAR EHAM 290625Z 24024KT 210V270 9999 FEW010 SCT019 09/07 Q1001 NOSIG

More Conditions Fewer Conditions

10-Day Weather Forecast

Almanac

Astronomy

Mar. 29, 2015 Rise Set
Actual Time
Civil Twilight
Nautical Twilight
Astronomical Twilight
Moon
Length of Visible Light
Length of Day
Tomorrow will be .
, % of the Moon is Illuminated

Today's Extremes

Country Highs Country Lows

Community

WunderPhotos

Upload Photos

1,809,186 photos uploaded!

WunderBlogs® & News

Nearby

Air Quality

  Air Quality AQ Index Pollutant
Not available.

Snow Depth

Station Depth Elevation

Earthquake Activity

City Distance Mag. Time & Date
Minimum magnitude displayed is 2.5.

Coastal Water Temperatures

Place Temperature

Stations

Nearby Weather Stations

Station Location Temp. Windchill Dew Point Humidity Wind Precip. Elev Updated Type